Time;durP1;ratioP1;P1;durP2;ratioP2;P2;SDS_P1;SDS_P2;PMS_P1;PMS_P2;Temp;Humidity;BMP_temperature;BMP_pressure;BME280_temperature;BME280_humidity;BME280_pressure;Samples;Min_cycle;Max_cycle;Signal;HPM_P1;HPM_P2
2022/05/15 00:03:30;;;;;;;9.00;1.83;;;9.80;23.20;;;;;;10510518;28;20247;-85
2022/05/15 00:08:52;;;;;;;7.60;2.33;;;9.80;24.90;;;;;;10478526;28;20194;-85
2022/05/15 00:14:13;;;;;;;6.17;2.10;;;9.70;32.80;;;;;;10468880;28;20210;-85
2022/05/15 00:19:35;;;;;;;4.03;1.77;;;9.70;39.00;;;;;;10468925;28;20205;-85
2022/05/15 00:24:56;;;;;;;5.30;1.67;;;9.60;42.70;;;;;;10482717;28;20200;-85
2022/05/15 00:30:20;;;;;;;10.43;1.90;;;9.60;48.80;;;;;;10482474;28;20270;-85
2022/05/15 00:35:43;;;;;;;5.43;2.07;;;9.50;46.00;;;;;;10482138;28;20296;-85
2022/05/15 00:41:05;;;;;;;6.40;2.00;;;9.50;48.40;;;;;;10468497;28;20406;-85
2022/05/15 00:46:30;;;;;;;10.83;2.03;;;9.50;53.10;;;;;;10467980;28;20203;-84
2022/05/15 00:51:59;;;;;;;4.63;1.83;;;9.40;58.50;;;;;;10426858;28;20246;-85
2022/05/15 00:57:30;;;;;;;8.47;2.00;;;9.40;61.50;;;;;;10440170;28;20235;-85
2022/05/15 01:03:00;;;;;;;9.60;1.80;;;9.40;67.40;;;;;;10425980;28;20205;-84
2022/05/15 01:08:23;;;;;;;6.07;1.87;;;9.20;76.00;;;;;;10481110;28;20376;-85
2022/05/15 01:13:47;;;;;;;5.73;1.70;;;9.20;75.00;;;;;;10446956;28;20243;-85
2022/05/15 01:19:09;;;;;;;7.03;2.13;;;;;;;;;;10466139;28;20241;-85
2022/05/15 01:24:31;;;;;;;9.43;2.43;;;9.20;76.60;;;;;;10466720;28;20198;-86
2022/05/15 01:29:55;;;;;;;8.00;2.03;;;9.10;81.10;;;;;;10454177;28;20225;-86
2022/05/15 01:35:17;;;;;;;8.87;2.03;;;9.10;83.90;;;;;;10467754;28;20240;-86
2022/05/15 01:40:40;;;;;;;6.53;1.70;;;9.10;82.20;;;;;;10452994;28;20202;-87
2022/05/15 01:46:03;;;;;;;9.27;2.03;;;9.10;76.40;;;;;;10467637;28;20266;-87
2022/05/15 01:51:24;;;;;;;8.53;1.80;;;9.00;91.10;;;;;;10494232;28;20198;-87
2022/05/15 01:56:46;;;;;;;4.23;1.53;;;9.00;83.80;;;;;;10500588;28;20602;-86
2022/05/15 02:02:10;;;;;;;4.60;1.80;;;8.90;87.20;;;;;;10453455;28;20198;-86
2022/05/15 02:07:32;;;;;;;8.37;1.50;;;8.90;93.80;;;;;;10467243;28;20201;-87
2022/05/15 02:12:55;;;;;;;9.97;2.00;;;8.90;90.50;;;;;;10466725;28;20191;-86
2022/05/15 02:18:16;;;;;;;8.57;1.77;;;8.80;99.40;;;;;;10450074;28;20284;-86
2022/05/15 02:23:38;;;;;;;5.23;2.00;;;8.90;92.50;;;;;;10451407;28;20198;-87
2022/05/15 02:29:00;;;;;;;6.63;1.53;;;8.80;97.60;;;;;;10456193;28;20277;-86
2022/05/15 02:34:22;;;;;;;5.47;1.47;;;8.80;98.70;;;;;;10465777;28;20280;-86
2022/05/15 02:39:46;;;;;;;7.73;1.63;;;8.70;99.90;;;;;;10466134;28;20259;-86
2022/05/15 02:45:09;;;;;;;1.90;1.13;;;8.70;99.90;;;;;;10451051;28;20268;-86
2022/05/15 02:56:19;;;;;;;5.80;1.33;;;8.70;99.90;;;;;;10495955;28;20226;-87
2022/05/15 03:01:41;;;;;;;4.77;1.43;;;8.70;99.90;;;;;;10471622;28;20205;-86
2022/05/15 03:07:05;;;;;;;7.13;1.73;;;8.70;99.90;;;;;;10459762;28;20200;-86
2022/05/15 03:12:26;;;;;;;5.20;1.30;;;8.70;99.90;;;;;;10453561;28;20494;-86
2022/05/15 03:17:49;;;;;;;8.60;1.93;;;8.70;99.90;;;;;;10478218;28;20238;-86
2022/05/15 03:23:11;;;;;;;7.93;1.73;;;8.70;99.90;;;;;;10478405;28;20193;-86
2022/05/15 03:28:33;;;;;;;6.77;1.60;;;8.70;99.90;;;;;;10449619;28;20206;-87
2022/05/15 03:33:55;;;;;;;7.40;1.83;;;8.70;99.90;;;;;;10450503;28;20245;-86
2022/05/15 03:39:19;;;;;;;7.67;1.90;;;8.70;99.90;;;;;;10455981;28;20226;-87
2022/05/15 03:44:41;;;;;;;2.37;1.17;;;8.70;99.90;;;;;;10457718;28;20205;-87
2022/05/15 03:50:07;;;;;;;7.00;2.47;;;8.80;99.90;;;;;;10500723;28;20204;-86
2022/05/15 03:55:29;;;;;;;3.30;1.37;;;8.80;99.90;;;;;;10491256;28;20213;-87
2022/05/15 04:00:51;;;;;;;8.77;1.90;;;8.80;99.90;;;;;;10471031;28;20202;-87
2022/05/15 04:06:12;;;;;;;4.30;1.70;;;8.80;99.90;;;;;;10470638;28;20205;-86
2022/05/15 04:11:34;;;;;;;3.40;1.30;;;8.90;99.90;;;;;;10470246;28;20200;-87
2022/05/15 04:16:55;;;;;;;5.37;2.00;;;9.00;99.90;;;;;;10469681;28;20232;-87
2022/05/15 04:22:17;;;;;;;4.10;1.27;;;9.00;99.90;;;;;;10517419;28;20196;-87
2022/05/15 04:27:39;;;;;;;3.90;1.60;;;9.20;99.90;;;;;;10498415;28;20197;-85
2022/05/15 04:33:01;;;;;;;6.20;1.90;;;9.30;99.90;;;;;;10469812;28;20234;-86
2022/05/15 04:38:24;;;;;;;5.93;1.47;;;9.50;99.90;;;;;;10455449;28;20520;-86
2022/05/15 04:43:47;;;;;;;6.30;1.63;;;9.60;97.30;;;;;;10468738;28;20218;-86
2022/05/15 04:49:08;;;;;;;4.53;1.67;;;9.70;97.10;;;;;;10504161;28;20194;-86
2022/05/15 04:54:30;;;;;;;6.73;1.87;;;9.80;91.20;;;;;;10508644;28;20384;-86
2022/05/15 04:59:51;;;;;;;9.43;1.97;;;9.90;87.50;;;;;;10482123;28;20216;-86
2022/05/15 05:05:13;;;;;;;8.27;1.93;;;10.00;85.00;;;;;;10454603;28;20199;-86
2022/05/15 05:10:35;;;;;;;7.43;1.80;;;10.20;72.80;;;;;;10454519;28;20198;-86
2022/05/15 05:15:56;;;;;;;6.70;2.20;;;10.30;61.30;;;;;;10467636;28;20226;-86
2022/05/15 05:21:18;;;;;;;6.00;2.33;;;10.50;58.00;;;;;;10453768;28;20198;-86
2022/05/15 05:26:39;;;;;;;10.63;2.60;;;10.40;60.30;;;;;;10467767;28;20198;-86
2022/05/15 05:32:01;;;;;;;7.20;2.07;;;10.50;55.50;;;;;;10441058;28;20290;-86
2022/05/15 05:37:22;;;;;;;10.53;2.37;;;10.60;40.90;;;;;;10412929;28;20232;-86
2022/05/15 05:42:44;;;;;;;6.60;2.33;;;10.60;48.30;;;;;;10425904;28;20205;-86
2022/05/15 05:48:06;;;;;;;13.13;3.40;;;10.80;36.10;;;;;;10452379;28;20456;-86
2022/05/15 05:53:27;;;;;;;9.57;2.93;;;10.90;29.40;;;;;;10508489;28;20215;-86
2022/05/15 05:58:49;;;;;;;7.47;2.07;;;11.20;11.80;;;;;;10467566;28;20229;-86
2022/05/15 06:09:50;;;;;;;9.13;2.10;;;11.50;1.00;;;;;;10466733;28;20278;-85
2022/05/15 06:15:12;;;;;;;10.37;2.33;;;11.80;1.00;;;;;;10485067;28;20209;-84
2022/05/15 06:20:33;;;;;;;4.57;1.23;;;12.10;1.00;;;;;;10502490;28;20203;-84
2022/05/15 06:25:54;;;;;;;4.88;1.60;;;12.30;1.00;;;;;;10449822;28;20493;-85
2022/05/15 06:31:16;;;;;;;6.78;1.98;;;12.90;1.00;;;;;;10450201;28;20203;-85
2022/05/15 06:36:37;;;;;;;7.18;2.58;;;13.70;1.00;;;;;;10450128;28;20315;-85
2022/05/15 06:42:00;;;;;;;10.10;2.13;;;14.60;1.00;;;;;;10463826;28;20235;-85
2022/05/15 06:47:32;;;;;;;5.78;1.48;;;14.30;1.00;;;;;;10472122;28;20225;-84
2022/05/15 06:52:53;;;;;;;7.80;1.90;;;14.70;1.00;;;;;;10505275;28;20237;-85
2022/05/15 06:58:15;;;;;;;5.68;1.70;;;14.40;1.00;;;;;;10453819;28;20221;-85
2022/05/15 07:03:37;;;;;;;8.55;2.10;;;15.00;1.00;;;;;;10477674;28;20198;-85
2022/05/15 07:08:59;;;;;;;3.67;1.45;;;16.00;99.90;;;;;;10463706;28;20201;-85
2022/05/15 07:14:20;;;;;;;4.43;1.17;;;16.50;1.00;;;;;;10466944;28;20428;-85
2022/05/15 07:19:42;;;;;;;5.93;2.17;;;17.00;99.90;;;;;;10471658;28;20223;-85
2022/05/15 07:25:04;;;;;;;6.07;1.42;;;17.40;99.90;;;;;;10455364;28;20233;-85
2022/05/15 07:30:25;;;;;;;5.57;1.80;;;18.10;99.90;;;;;;10471186;28;20199;-86
2022/05/15 07:35:48;;;;;;;4.28;1.20;;;18.10;99.90;;;;;;10456916;28;20272;-85
2022/05/15 07:41:09;;;;;;;5.88;1.95;;;17.00;99.90;;;;;;10470688;28;20226;-85
2022/05/15 07:46:31;;;;;;;4.57;1.27;;;17.10;99.90;;;;;;10470495;28;20225;-85
2022/05/15 07:51:52;;;;;;;4.68;1.92;;;17.30;1.00;;;;;;10511506;28;20426;-85
2022/05/15 07:57:14;;;;;;;3.05;1.30;;;17.60;75.60;;;;;;10510695;28;20225;-86
2022/05/15 08:02:36;;;;;;;6.32;1.55;;;17.40;1.00;;;;;;10511360;28;20377;-85
2022/05/15 08:08:01;;;;;;;3.53;1.42;;;17.80;1.00;;;;;;10511928;28;20236;-86
2022/05/15 08:13:26;;;;;;;5.35;1.25;;;18.30;99.90;;;;;;10513295;28;20191;-85
2022/05/15 08:24:27;;;;;;;9.43;1.70;;;19.90;1.00;;;;;;10450017;28;20290;-85
2022/05/15 08:29:48;;;;;;;5.65;1.25;;;20.30;1.00;;;;;;10482792;28;20192;-85
2022/05/15 08:35:10;;;;;;;4.97;1.38;;;19.60;99.90;;;;;;10468220;28;20231;-85
2022/05/15 08:41:03;;;;;;;5.57;1.40;;;19.50;99.90;;;;;;10454090;28;20231;-86
2022/05/15 08:46:46;;;;;;;3.38;1.25;;;20.20;67.80;;;;;;10424601;28;20201;-85
2022/05/15 08:52:13;;;;;;;3.63;1.15;;;20.00;1.00;;;;;;10370123;28;20197;-86
2022/05/15 08:57:40;;;;;;;2.45;1.08;;;20.50;1.00;;;;;;10401023;28;20286;-85
2022/05/15 09:03:25;;;;;;;3.17;1.00;;;20.10;1.00;;;;;;10393836;28;20197;-86
2022/05/15 09:09:14;;;;;;;3.25;1.20;;;20.90;1.00;;;;;;10437375;28;20204;-86
2022/05/15 09:14:48;;;;;;;3.50;1.60;;;21.00;1.00;;;;;;10393076;28;20251;-86
2022/05/15 09:20:12;;;;;;;4.68;1.10;;;21.10;99.90;;;;;;10426495;28;20236;-85
2022/05/15 09:25:37;;;;;;;5.38;1.00;;;21.60;1.00;;;;;;10466546;28;20196;-85
2022/05/15 09:31:04;;;;;;;4.78;1.20;;;21.70;1.00;;;;;;10480671;28;20191;-85
2022/05/15 09:36:29;;;;;;;3.38;1.00;;;20.80;1.00;;;;;;10479309;28;20292;-85
2022/05/15 09:48:00;;;;;;;3.13;1.00;;;20.60;99.90;;;;;;10490324;28;20493;-85
2022/05/15 09:53:55;;;;;;;3.25;1.05;;;21.10;1.00;;;;;;10504928;28;20501;-85
2022/05/15 09:59:17;;;;;;;4.43;1.63;;;20.90;99.90;;;;;;10405346;28;20558;-85
2022/05/15 10:04:39;;;;;;;3.25;1.30;;;21.00;99.90;;;;;;10418871;28;20220;-85
2022/05/15 10:10:21;;;;;;;1.73;0.65;;;20.30;99.90;;;;;;10405817;28;20196;-86
2022/05/15 10:15:48;;;;;;;9.35;1.13;;;21.20;20.70;;;;;;10426795;28;20208;-86
2022/05/15 10:21:11;;;;;;;3.33;0.93;;;21.30;25.00;;;;;;10391858;28;20270;-86
2022/05/15 10:26:58;;;;;;;1.73;0.90;;;21.90;1.00;;;;;;10416108;28;20523;-86
2022/05/15 10:32:34;;;;;;;5.22;1.35;;;22.20;1.00;;;;;;10406722;28;20231;-86
2022/05/15 10:38:07;;;;;;;7.88;1.02;;;20.80;1.00;;;;;;10465961;28;20223;-86
2022/05/15 10:43:55;;;;;;;3.25;1.20;;;20.00;1.00;;;;;;10479266;28;20204;-86
2022/05/15 10:49:35;;;;;;;2.97;1.20;;;19.60;1.00;;;;;;10487829;28;20222;-85
2022/05/15 11:01:33;;;;;;;1.73;0.88;;;19.90;99.90;;;;;;10454680;28;20242;-86
2022/05/15 11:07:07;;;;;;;2.97;0.98;;;20.70;99.90;;;;;;10439421;28;20192;-85
2022/05/15 11:12:52;;;;;;;2.30;1.08;;;20.50;99.90;;;;;;10429356;28;20192;-86
2022/05/15 11:18:34;;;;;;;3.28;1.20;;;20.40;99.90;;;;;;10405828;28;20251;-86
2022/05/15 11:24:03;;;;;;;4.88;1.23;;;19.80;99.90;;;;;;10416804;28;20191;-85
2022/05/15 11:29:26;;;;;;;3.42;1.70;;;20.20;99.90;;;;;;10365212;28;20209;-86
2022/05/15 11:35:14;;;;;;;3.28;1.40;;;20.00;99.90;;;;;;10395036;28;20220;-85
2022/05/15 11:40:50;;;;;;;2.63;1.00;;;20.10;99.90;;;;;;10405300;28;20243;-86
2022/05/15 11:46:11;;;;;;;3.00;1.35;;;20.30;99.90;;;;;;10405361;28;20212;-86
2022/05/15 11:51:34;;;;;;;3.90;1.00;;;20.00;99.90;;;;;;10436794;28;20203;-86
2022/05/15 11:56:57;;;;;;;2.65;0.95;;;19.70;99.90;;;;;;10471668;28;20219;-86
2022/05/15 12:02:21;;;;;;;3.67;1.00;;;20.30;99.90;;;;;;10472979;28;20199;-85
2022/05/15 12:08:07;;;;;;;9.23;1.23;;;20.70;99.90;;;;;;10472733;28;20363;-86
2022/05/15 12:13:42;;;;;;;2.25;1.33;;;20.30;99.90;;;;;;10459212;28;20195;-86
2022/05/15 12:19:38;;;;;;;5.05;1.40;;;20.60;99.90;;;;;;10474365;28;20277;-86
2022/05/15 12:25:09;;;;;;;4.70;1.08;;;21.00;99.90;;;;;;10466481;28;20208;-85
2022/05/15 12:30:34;;;;;;;3.85;1.40;;;20.80;99.90;;;;;;10473635;28;20203;-85
2022/05/15 12:35:57;;;;;;;2.13;0.95;;;20.40;99.90;;;;;;10493331;28;20236;-86
2022/05/15 12:41:45;;;;;;;5.15;1.30;;;20.20;99.90;;;;;;10485071;28;20196;-86
2022/05/15 12:47:19;;;;;;;4.50;1.73;;;20.10;99.90;;;;;;10492344;28;20266;-86
2022/05/15 12:52:41;;;;;;;3.03;1.63;;;20.50;99.90;;;;;;10509357;28;20201;-86
2022/05/15 12:58:07;;;;;;;1.95;1.10;;;20.80;99.90;;;;;;10456633;28;20223;-86
2022/05/15 13:03:29;;;;;;;8.13;1.30;;;21.10;99.90;;;;;;10470332;28;20191;-85
2022/05/15 13:08:54;;;;;;;4.70;1.55;;;21.30;96.60;;;;;;10472626;28;20566;-85
2022/05/15 13:14:29;;;;;;;3.90;1.40;;;21.40;92.70;;;;;;10489737;28;20263;-85
2022/05/15 13:19:52;;;;;;;4.38;1.70;;;21.50;72.50;;;;;;10441286;28;20244;-86
2022/05/15 13:25:29;;;;;;;4.25;1.40;;;21.30;44.00;;;;;;10464680;28;20184;-86
2022/05/15 13:30:50;;;;;;;3.15;1.30;;;21.40;42.30;;;;;;10482777;28;20196;-85
2022/05/15 13:36:17;;;;;;;7.15;1.75;;;21.30;37.10;;;;;;10469565;28;20240;-85
2022/05/15 13:47:26;;;;;;;8.88;2.00;;;21.00;34.30;;;;;;10467864;28;20498;-86
2022/05/15 13:52:47;;;;;;;6.25;1.60;;;21.10;38.20;;;;;;10466925;28;20207;-86
2022/05/15 13:58:09;;;;;;;7.80;2.40;;;20.80;16.40;;;;;;10467381;28;20223;-86
2022/05/15 14:03:34;;;;;;;3.65;1.52;;;20.70;10.90;;;;;;10466895;28;20195;-86
2022/05/15 14:09:10;;;;;;;4.03;1.42;;;20.40;18.90;;;;;;10466779;28;20199;-86
2022/05/15 14:14:46;;;;;;;6.07;1.27;;;20.40;21.90;;;;;;10469368;28;20271;-86
2022/05/15 14:20:09;;;;;;;4.15;1.35;;;20.10;13.30;;;;;;10466471;28;20286;-85
2022/05/15 14:25:31;;;;;;;7.18;1.80;;;20.00;11.10;;;;;;10466288;28;20207;-86
2022/05/15 14:30:52;;;;;;;5.25;1.50;;;19.70;11.30;;;;;;10480723;28;20202;-86
2022/05/15 14:36:20;;;;;;;3.78;1.52;;;19.60;42.10;;;;;;10478576;28;20235;-85
2022/05/15 14:41:42;;;;;;;6.88;1.88;;;19.30;23.80;;;;;;10450401;28;20191;-85
2022/05/15 14:47:07;;;;;;;6.57;1.50;;;19.20;42.90;;;;;;10455090;28;20191;-85
2022/05/15 14:52:32;;;;;;;5.15;1.85;;;18.90;44.90;;;;;;10504854;28;20195;-85
2022/05/15 14:57:54;;;;;;;7.57;1.65;;;18.90;78.50;;;;;;10490410;28;20233;-84
2022/05/15 15:03:16;;;;;;;9.80;2.20;;;18.70;91.90;;;;;;10491274;28;20384;-85
2022/05/15 15:08:38;;;;;;;4.95;1.83;;;18.40;99.90;;;;;;10519390;28;20191;-85
2022/05/15 15:14:04;;;;;;;6.78;1.83;;;18.30;99.90;;;;;;10485440;28;20219;-85
2022/05/15 15:19:31;;;;;;;3.03;1.20;;;18.20;99.90;;;;;;10477256;28;20294;-85
2022/05/15 15:24:52;;;;;;;4.53;1.35;;;18.20;99.90;;;;;;10462818;28;20212;-85
2022/05/15 15:30:14;;;;;;;5.07;1.67;;;18.00;99.90;;;;;;10463106;28;20199;-85
2022/05/15 15:35:36;;;;;;;2.05;1.17;;;18.00;99.90;;;;;;10469437;28;20240;-85
2022/05/15 15:40:59;;;;;;;3.60;1.60;;;17.90;99.90;;;;;;10470921;28;20235;-85
2022/05/15 15:46:22;;;;;;;2.55;1.33;;;17.70;99.90;;;;;;10456760;28;20202;-85
2022/05/15 15:51:54;;;;;;;5.00;1.90;;;17.50;99.90;;;;;;10459901;28;20197;-85
2022/05/15 15:57:16;;;;;;;4.75;1.50;;;17.50;99.90;;;;;;10469944;28;20212;-85
2022/05/15 16:02:42;;;;;;;6.53;1.50;;;17.30;99.90;;;;;;10456246;28;20486;-85
2022/05/15 16:08:07;;;;;;;3.60;1.30;;;17.30;99.90;;;;;;10470285;28;20194;-86
2022/05/15 16:13:31;;;;;;;2.83;1.20;;;17.20;99.90;;;;;;10469617;28;20263;-86
2022/05/15 16:18:52;;;;;;;4.97;1.60;;;17.10;99.90;;;;;;10458287;28;20318;-85
2022/05/15 16:24:20;;;;;;;3.67;1.48;;;17.20;99.90;;;;;;10469167;28;20611;-85
2022/05/15 16:29:44;;;;;;;2.80;1.27;;;17.10;99.90;;;;;;10469125;28;20206;-85
2022/05/15 16:35:07;;;;;;;7.18;1.70;;;17.00;99.90;;;;;;10469446;28;20238;-85
2022/05/15 16:40:29;;;;;;;2.97;1.90;;;17.00;99.90;;;;;;10454462;28;20230;-85
2022/05/15 16:45:50;;;;;;;6.32;1.83;;;17.00;1.00;;;;;;10481520;28;20191;-85
2022/05/15 16:51:11;;;;;;;4.10;2.35;;;17.00;1.00;;;;;;10507287;28;20198;-85
2022/05/15 16:56:33;;;;;;;6.80;2.28;;;16.90;1.00;;;;;;10509318;28;20202;-87
2022/05/15 17:01:54;;;;;;;6.28;2.30;;;16.70;1.00;;;;;;10523915;28;20195;-86
2022/05/15 17:07:16;;;;;;;5.13;1.70;;;16.70;1.00;;;;;;10494852;28;20232;-85
2022/05/15 17:12:38;;;;;;;4.93;1.45;;;16.50;1.00;;;;;;10500525;28;20197;-85
2022/05/15 17:18:01;;;;;;;6.15;1.80;;;16.50;1.00;;;;;;10483104;28;20276;-85
2022/05/15 17:23:24;;;;;;;2.78;1.70;;;16.30;1.00;;;;;;10480594;28;20213;-85
2022/05/15 17:34:26;;;;;;;5.88;1.90;;;16.00;38.40;;;;;;10466318;28;20244;-84
2022/05/15 17:39:47;;;;;;;3.90;1.85;;;15.90;99.90;;;;;;10466095;28;20221;-85
2022/05/15 17:45:12;;;;;;;5.00;2.08;;;15.80;1.00;;;;;;10465604;28;20193;-84
2022/05/15 17:50:35;;;;;;;6.43;2.22;;;15.70;1.00;;;;;;10485262;28;20196;-85
2022/05/15 17:55:59;;;;;;;5.68;2.10;;;15.60;99.90;;;;;;10471998;28;20225;-84
2022/05/15 18:01:21;;;;;;;11.20;2.72;;;15.50;1.00;;;;;;10451541;28;20225;-84
2022/05/15 18:06:43;;;;;;;5.03;2.20;;;15.40;1.00;;;;;;10465591;28;20212;-85
2022/05/15 18:12:06;;;;;;;5.53;2.30;;;15.30;99.90;;;;;;10468313;28;20261;-85
2022/05/15 18:17:27;;;;;;;9.40;2.20;;;15.20;1.00;;;;;;10482571;28;20308;-85
2022/05/15 18:22:49;;;;;;;5.00;2.10;;;15.10;99.90;;;;;;10464306;28;20498;-84
2022/05/15 18:28:12;;;;;;;4.05;2.03;;;14.90;1.00;;;;;;10464161;28;20198;-84
2022/05/15 18:33:34;;;;;;;13.35;4.47;;;14.80;1.00;;;;;;10465059;28;20258;-85
2022/05/15 18:38:55;;;;;;;10.40;7.40;;;14.70;99.90;;;;;;10465096;28;20222;-85
2022/05/15 18:44:20;;;;;;;14.55;9.40;;;14.50;1.00;;;;;;10449949;28;20203;-85
2022/05/15 18:55:22;;;;;;;6.15;2.60;;;14.40;1.00;;;;;;10519328;28;20645;-84
2022/05/15 19:00:43;;;;;;;4.47;2.90;;;14.30;1.00;;;;;;10504658;28;20230;-84
2022/05/15 19:06:05;;;;;;;8.40;4.50;;;14.30;42.80;;;;;;10505488;28;20219;-84
2022/05/15 19:11:28;;;;;;;9.98;5.30;;;14.20;99.90;;;;;;10499141;28;20200;-84
2022/05/15 19:16:49;;;;;;;11.70;6.90;;;14.20;99.90;;;;;;10488240;28;20198;-84
2022/05/15 19:22:11;;;;;;;9.05;6.38;;;14.10;99.90;;;;;;10512303;28;20239;-85
2022/05/15 19:27:32;;;;;;;14.77;6.60;;;14.10;99.90;;;;;;10432518;28;20306;-83
2022/05/15 19:32:54;;;;;;;11.65;6.30;;;14.00;99.90;;;;;;10432013;28;20259;-85
2022/05/15 19:38:15;;;;;;;10.73;5.90;;;13.80;99.90;;;;;;10429280;28;20230;-84
2022/05/15 19:43:37;;;;;;;11.43;6.30;;;13.70;1.00;;;;;;10439649;28;20506;-84
2022/05/15 19:48:58;;;;;;;13.45;7.38;;;13.70;1.00;;;;;;10490849;28;20520;-83
2022/05/15 19:54:20;;;;;;;14.50;6.43;;;13.60;1.00;;;;;;10511909;28;20213;-85
2022/05/15 19:59:41;;;;;;;9.70;5.00;;;13.50;1.00;;;;;;10511624;28;20224;-85
2022/05/15 20:16:26;;;;;;;12.02;6.03;;;13.20;1.00;;;;;;10483663;28;20523;-85
2022/05/15 20:21:49;;;;;;;11.07;6.13;;;13.10;1.00;;;;;;10470415;28;20251;-85
2022/05/15 20:27:10;;;;;;;10.07;5.03;;;13.00;1.00;;;;;;10484582;28;20439;-86
2022/05/15 20:32:32;;;;;;;17.25;7.75;;;12.80;1.00;;;;;;10470100;28;20220;-85
2022/05/15 20:37:54;;;;;;;17.75;9.65;;;12.70;1.00;;;;;;10483486;28;20218;-86
2022/05/15 20:43:16;;;;;;;18.35;8.10;;;12.60;1.00;;;;;;10469152;28;20386;-85
2022/05/15 20:48:39;;;;;;;12.23;5.65;;;12.50;1.00;;;;;;10473277;28;20196;-85
2022/05/15 20:54:00;;;;;;;11.35;4.82;;;12.40;1.00;;;;;;10496029;28;20196;-85
2022/05/15 20:59:21;;;;;;;10.45;5.22;;;12.40;1.00;;;;;;10509734;28;20291;-85
2022/05/15 21:04:43;;;;;;;9.32;5.25;;;12.20;1.00;;;;;;10510224;28;20203;-85
2022/05/15 21:10:08;;;;;;;9.15;5.75;;;12.10;1.00;;;;;;10510392;28;20205;-85
2022/05/15 21:15:30;;;;;;;8.98;5.10;;;12.00;1.00;;;;;;10477095;28;20233;-85
2022/05/15 21:20:53;;;;;;;10.38;6.20;;;12.00;1.00;;;;;;10468329;28;20233;-85
2022/05/15 21:26:15;;;;;;;12.32;6.25;;;12.00;1.00;;;;;;10440643;28;20243;-85
2022/05/15 21:31:37;;;;;;;14.68;8.52;;;12.00;1.00;;;;;;10451219;28;20554;-85
2022/05/15 21:36:58;;;;;;;17.02;8.45;;;11.90;1.00;;;;;;10454034;28;20203;-85
2022/05/15 21:48:00;;;;;;;17.42;9.00;;;11.70;1.00;;;;;;10479493;28;20244;-85
2022/05/15 21:53:21;;;;;;;14.27;8.73;;;11.50;1.00;;;;;;10507808;28;20198;-85
2022/05/15 21:58:43;;;;;;;15.63;8.17;;;11.30;1.00;;;;;;10508029;28;20217;-85
2022/05/15 22:04:06;;;;;;;10.48;6.13;;;11.20;1.00;;;;;;10507924;28;20198;-84
2022/05/15 22:09:27;;;;;;;13.90;7.63;;;11.20;1.00;;;;;;10508151;28;20211;-85
2022/05/15 22:14:49;;;;;;;12.50;7.93;;;11.10;1.00;;;;;;10476014;28;20204;-85
2022/05/15 22:20:11;;;;;;;19.27;9.53;;;11.00;1.00;;;;;;10466778;28;20575;-85
2022/05/15 22:25:32;;;;;;;16.77;9.03;;;10.90;1.00;;;;;;10476265;28;20202;-85
2022/05/15 22:30:53;;;;;;;19.73;9.77;;;10.80;1.00;;;;;;10493659;28;20202;-85
2022/05/15 22:36:15;;;;;;;16.60;10.18;;;10.70;1.00;;;;;;10494429;28;20266;-85
2022/05/15 22:41:36;;;;;;;19.13;10.33;;;10.60;1.00;;;;;;10520179;28;20220;-83
2022/05/15 22:46:58;;;;;;;20.30;10.90;;;10.50;1.00;;;;;;10432177;28;20489;-84
2022/05/15 22:52:20;;;;;;;18.23;10.23;;;10.40;1.00;;;;;;10492178;28;20397;-84
2022/05/15 22:57:43;;;;;;;19.47;10.50;;;10.40;1.00;;;;;;10490829;28;20198;-84
2022/05/15 23:03:05;;;;;;;21.53;10.27;;;10.40;1.00;;;;;;10505196;28;20198;-84
2022/05/15 23:08:26;;;;;;;19.83;10.20;;;10.20;1.00;;;;;;10504986;28;20435;-83
2022/05/15 23:13:48;;;;;;;18.60;10.47;;;10.20;11.80;;;;;;10471963;28;20199;-83
2022/05/15 23:19:10;;;;;;;21.13;9.50;;;10.20;1.00;;;;;;10459229;28;20284;-83
2022/05/15 23:24:31;;;;;;;15.43;9.03;;;10.20;3.80;;;;;;10448944;28;20199;-83
2022/05/15 23:29:53;;;;;;;17.17;10.13;;;10.10;1.00;;;;;;10463142;28;20205;-84
2022/05/15 23:35:14;;;;;;;21.13;9.17;;;10.00;1.00;;;;;;10462642;28;20418;-84
2022/05/15 23:40:36;;;;;;;16.93;10.03;;;9.80;14.40;;;;;;10462714;28;20313;-83
2022/05/15 23:45:59;;;;;;;20.23;9.53;;;9.70;14.90;;;;;;10476536;28;20564;-84
2022/05/15 23:51:20;;;;;;;20.53;10.30;;;9.70;4.80;;;;;;10501565;28;20474;-84
2022/05/15 23:56:42;;;;;;;23.30;10.27;;;9.60;2.50;;;;;;10468430;28;20198;-84
